Thunder Bay, Canada
Current Conditions -  °F | °C
As of 10:00 PM on Friday 21 Nov 2014 (Local Time) from CYQT Reporting Station
Overcast Overcast  
Wind Chill: 22°   Ceiling: 12000
Heat Index: 32°   Visibility: 15mi
Dew Point: 23°   Wind: 14mph
Humidity: 69%   Direction: 240°WSW
Pressure: 29.67"   Gusts: 28mph
Location:  48.38°N, 89.25°W
Report Text: CYQT 220300Z 24012G24KT 15SM OVC120 00/M05 A2967 RMK AC8 SLP062
Loading
Personal Weather Stations






























Interactive Weather Map New forecast layout! Learn more

10-Day Weather Forecast

Advertisements
Track Severe Weather on mobile